Sanville, Virginia
Current Conditions -  °F | °C
As of 10:35 AM on Thursday 30 Oct 2014 (Local Time) from KMTV Reporting Station
Clear Clear  
Wind Chill: 56°   Ceiling: Unl
Heat Index: 56°   Visibility: 10mi
Dew Point: 39°   Wind: 6mph
Humidity: 54%   Direction: 10°N
Pressure: 30.12"   Gusts: NA
Location:  36.7587°N, 79.9987°W
Report Text: KMTV 301435Z AUTO 01005KT 10SM CLR 13/04 A3012 RMK AO2 T01320040
Loading
Personal Weather Stations






























Interactive Weather Map
Tropical Storm Tracking
New forecast layout! Learn more

10-Day Weather Forecast

Advertisements
Track Severe Weather on mobile